Arctic Fury — WDE9335 — position and weather

sailwx.info

Track history (hours):
 
Tides and Currents Weather Stations Pressure Air Temp Water Temp Dewpoint Dewpoint Depression Visibility Wind Speed Wind Dir Waves Ship Positions

Arctic Fury

Owner: Fury Group Inc, Seattle, WA. More information available from US FCC via Universal Licensing System and Coast Guard Vessel Documentation Center.

Last reported at 2016-Aug-30 18:21 UTC. Time now 2016-Aug-30 18:54 UTC.
Position N 47°02' W 124°23'.

Length 43 m; draft 5 m.

Type: Fishing. MMSI: 366468000.

Date/timePositionNaut miles runAvg speedWind from/ knotsBaromVisibWave heightAir tempDewpointWater temp
2016-Aug-30 18:21N 47°02' W 124°23'7 9.2
2016-Aug-30 17:33N 46°57' W 124°16'7 6.2
2016-Aug-30 16:28N 46°54' W 124°06'0 0.0
2016-Aug-30 14:25N 46°54' W 124°06'0 0.0
2016-Aug-30 13:31N 46°54' W 124°06'0 0.0
2016-Aug-30 12:33N 46°54' W 124°06'0 0.0
2016-Aug-30 11:29N 46°54' W 124°06'0 0.0
2016-Aug-30 10:26N 46°54' W 124°06'0 0.0
2016-Aug-30 09:33N 46°54' W 124°06'0 0.0
2016-Aug-30 08:33N 46°54' W 124°06'0 0.0
2016-Aug-30 07:34N 46°54' W 124°06'0 0.0
2016-Aug-30 06:33N 46°54' W 124°06'0 0.0
2016-Aug-30 05:33N 46°54' W 124°06'0 0.0
2016-Aug-30 04:33N 46°54' W 124°06'0 0.0
2016-Aug-30 03:32N 46°54' W 124°06'0 0.0
2016-Aug-30 02:32N 46°54' W 124°06'0 0.0
2016-Aug-30 01:27N 46°54' W 124°06'0 0.1
2016-Aug-29 22:20N 46°55' W 124°07'0 0.3
2016-Aug-29 21:31N 46°54' W 124°06'0 0.0
2016-Aug-29 20:32N 46°54' W 124°06'0 0.0
2016-Aug-29 19:33N 46°54' W 124°06'0 0.0
2016-Aug-29 18:33N 46°54' W 124°06'0 0.0
2016-Aug-29 17:09N 46°54' W 124°06'0 0.0
2016-Aug-29 16:17N 46°54' W 124°06'0 0.0
2016-Aug-29 15:04N 46°54' W 124°06'2 3.2
2016-Aug-29 14:32N 46°55' W 124°09'5 5.3
2016-Aug-29 13:32N 46°58' W 124°15'7 6.8
2016-Aug-29 12:32N 47°03' W 124°22'7 6.9
2016-Aug-29 11:32N 47°08' W 124°29'7 6.9
2016-Aug-29 10:31N 47°13' W 124°36'7 6.7
2016-Aug-29 09:33N 47°18' W 124°42'8 6.7
2016-Aug-29 08:25N 47°24' W 124°50'7 6.3
2016-Aug-29 07:23N 47°29' W 124°56'14 4.9
2016-Aug-29 04:31N 47°41' W 125°06'2 1.6
2016-Aug-29 03:31N 47°42' W 125°08'3 2.9
2016-Aug-29 02:33N 47°44' W 125°09'3 3.3
2016-Aug-29 01:33N 47°48' W 125°08'5 2.1
2016-Aug-28 23:17N 47°52' W 125°11'6 6.4
2016-Aug-28 22:23N 47°47' W 125°07'5 2.7
2016-Aug-28 20:31N 47°42' W 125°06'31 4.4
2016-Aug-28 13:33N 47°16' W 124°42'9 9.2
2016-Aug-28 12:33N 47°09' W 124°33'9 9.3
2016-Aug-28 11:33N 47°02' W 124°24'9 9.4
2016-Aug-28 10:33N 46°55' W 124°14'5 4.2
2016-Aug-28 09:17N 46°54' W 124°06'0 0.0
2016-Aug-28 08:32N 46°54' W 124°06'0 0.0
2016-Aug-28 07:25N 46°54' W 124°06'0 0.0
2016-Aug-28 06:18N 46°54' W 124°06'0 0.0
2016-Aug-28 05:27N 46°54' W 124°06'0 0.0
2016-Aug-28 04:33N 46°54' W 124°06'0 0.0
2016-Aug-28 03:33N 46°54' W 124°06'0 0.0
2016-Aug-28 02:32N 46°54' W 124°06'0 0.0
2016-Aug-28 01:33N 46°54' W 124°06'0 0.0
2016-Aug-28 00:29N 46°54' W 124°06'0 0.0
2016-Aug-27 23:09N 46°54' W 124°06'0 0.0
2016-Aug-27 22:33N 46°54' W 124°06'0 0.0
2016-Aug-27 21:32N 46°54' W 124°06'0 0.0
2016-Aug-27 20:29N 46°54' W 124°06'0 0.0
2016-Aug-27 19:21N 46°54' W 124°06'0 0.0
2016-Aug-27 18:30N 46°54' W 124°06'0 0.0
2016-Aug-27 17:28N 46°54' W 124°06'0 0.0
2016-Aug-27 16:30N 46°54' W 124°06'0 0.0
2016-Aug-27 15:32N 46°54' W 124°06'3 0.4
2016-Aug-27 07:33N 46°55' W 124°11'8 8.3
2016-Aug-27 06:33N 47°02' W 124°19'20 9.8
2016-Aug-27 04:32N 47°18' W 124°36'9 9.7
2016-Aug-27 03:33N 47°26' W 124°44'10 9.9
2016-Aug-27 02:33N 47°34' W 124°52'10 9.7
2016-Aug-27 01:33N 47°42' W 125°00'8 8.5
2016-Aug-27 00:33N 47°49' W 125°08'3 3.4
2016-Aug-26 23:33N 47°51' W 125°11'3 2.9
2016-Aug-26 22:33N 47°53' W 125°14'3 3.2
2016-Aug-26 21:33N 47°56' W 125°16'3 3.3
2016-Aug-26 20:33N 47°59' W 125°19'2 0.4
2016-Aug-26 16:32N 47°57' W 125°18'1 0.5
2016-Aug-26 15:32N 47°58' W 125°18'8 8.5
2016-Aug-26 14:33N 47°51' W 125°10'7 7.2
2016-Aug-26 13:33N 47°45' W 125°06'0 0.5
2016-Aug-26 12:33N 47°44' W 125°06'0 0.3
2016-Aug-26 11:33N 47°45' W 125°06'2 1.6
2016-Aug-26 10:33N 47°43' W 125°06'3 3.4
2016-Aug-26 09:33N 47°40' W 125°05'4 3.8
2016-Aug-26 08:33N 47°36' W 125°03'4 3.8
2016-Aug-26 07:33N 47°32' W 125°02'4 3.8
2016-Aug-26 06:33N 47°29' W 124°60'7 3.7
2016-Aug-26 04:33N 47°22' W 124°57'4 3.7
2016-Aug-26 03:33N 47°18' W 124°56'7 6.7
2016-Aug-26 02:33N 47°11' W 124°57'6 6.3
2016-Aug-26 01:33N 47°05' W 124°54'9 8.9
2016-Aug-26 00:33N 47°02' W 124°42'9 9.2
2016-Aug-25 23:33N 46°59' W 124°29'9 9.2
2016-Aug-25 22:33N 46°56' W 124°16'7 6.5
2016-Aug-25 21:31N 46°54' W 124°06'0 0.0
2016-Aug-25 20:33N 46°54' W 124°06'0 0.0
2016-Aug-25 19:22N 46°54' W 124°06'0 0.0
2016-Aug-25 18:32N 46°54' W 124°06'0 0.0
2016-Aug-25 17:31N 46°54' W 124°06'0 0.0
2016-Aug-25 16:29N 46°54' W 124°06'0 0.0
2016-Aug-25 15:33N 46°54' W 124°06'0 0.0
2016-Aug-25 14:33N 46°54' W 124°06'0 0.0
2016-Aug-25 13:33N 46°54' W 124°06'0 0.0
2016-Aug-25 12:32N 46°54' W 124°06'0 0.0
2016-Aug-25 11:07N 46°54' W 124°06'4 6.3
2016-Aug-25 10:33N 46°55' W 124°12'9 9.1
2016-Aug-25 09:33N 47°02' W 124°20'10 9.9
2016-Aug-25 08:33N 47°10' W 124°28'39 9.8
2016-Aug-25 04:33N 47°42' W 125°02'11 9.4
2016-Aug-25 03:23N 47°51' W 125°12'10 1.8
2016-Aug-24 21:33N 47°42' W 125°05'2 2.0
2016-Aug-24 20:25N 47°40' W 125°07'3 3.2
2016-Aug-24 19:33N 47°37' W 125°06'3 3.0
2016-Aug-24 18:33N 47°34' W 125°05'1 1.1
2016-Aug-24 17:33N 47°35' W 125°05'3 3.0
2016-Aug-24 16:33N 47°38' W 125°07'2 0.7
2016-Aug-24 14:13N 47°39' W 125°08'7 7.7
2016-Aug-24 13:22N 47°34' W 125°03'3 4.1
2016-Aug-24 12:33N 47°31' W 125°01'0 0.2
2016-Aug-24 11:33N 47°30' W 125°01'1 0.9
2016-Aug-24 10:32N 47°31' W 125°02'1 0.9
2016-Aug-24 09:33N 47°32' W 125°03'1 0.6
2016-Aug-24 08:33N 47°32' W 125°04'1 0.7
2016-Aug-24 07:33N 47°33' W 125°04'1 0.8
2016-Aug-24 06:31N 47°34' W 125°04'1 0.7
2016-Aug-24 04:31N 47°35' W 125°03'2 2.5
2016-Aug-24 03:33N 47°37' W 125°05'3 3.0
2016-Aug-24 02:33N 47°39' W 125°07'3 3.1
2016-Aug-24 01:33N 47°37' W 125°05'3 3.4
2016-Aug-24 00:33N 47°33' W 125°03'2 2.1
2016-Aug-23 23:33N 47°32' W 125°01'8 8.4
2016-Aug-23 22:33N 47°26' W 124°52'9 9.0
2016-Aug-23 21:34N 47°19' W 124°44'9 9.0
2016-Aug-23 20:33N 47°12' W 124°35'9 9.0
2016-Aug-23 19:33N 47°05' W 124°27'9 9.3
2016-Aug-23 18:33N 46°58' W 124°18'9 8.7
2016-Aug-23 17:33N 46°55' W 124°06'0 0.2
2016-Aug-23 16:33N 46°54' W 124°06'0 0.0
2016-Aug-23 15:29N 46°54' W 124°06'0 0.0
2016-Aug-23 14:33N 46°54' W 124°06'0 0.0
2016-Aug-23 13:33N 46°54' W 124°06'0 0.0
2016-Aug-23 12:33N 46°54' W 124°06'0 0.0
2016-Aug-23 11:33N 46°54' W 124°06'0 0.0
2016-Aug-23 10:33N 46°54' W 124°06'0 0.0
2016-Aug-23 09:33N 46°54' W 124°06'0 0.0
2016-Aug-23 08:15N 46°54' W 124°06'5 7.4
2016-Aug-23 07:33N 46°56' W 124°14'10 9.7
2016-Aug-23 06:33N 47°03' W 124°23'1010.0
2016-Aug-23 05:33N 47°11' W 124°32'11 8.9
2016-Aug-23 04:20N 47°19' W 124°42'7 5.7
2016-Aug-23 03:08N 47°25' W 124°49'2 2.3
2016-Aug-23 02:04N 47°27' W 124°51'21 1.6
2016-Aug-22 13:28N 47°07' W 124°59'1 0.2
2016-Aug-22 10:22N 47°06' W 124°58'2 2.2
2016-Aug-22 09:33N 47°04' W 124°58'3 2.7
2016-Aug-22 08:32N 47°03' W 124°54'3 3.0
2016-Aug-22 07:33N 47°03' W 124°50'3 3.1
2016-Aug-22 06:33N 47°02' W 124°46'3 3.0
2016-Aug-22 05:33N 47°01' W 124°41'3 2.8
2016-Aug-22 04:33N 47°00' W 124°37'3 3.0
2016-Aug-22 03:33N 46°59' W 124°33'3 3.2
2016-Aug-22 02:33N 46°59' W 124°29'3 3.0
2016-Aug-22 01:33N 46°58' W 124°24'3 3.3
2016-Aug-22 00:33N 46°57' W 124°20'6 5.5
2016-Aug-21 23:30N 46°55' W 124°12'4 3.6
2016-Aug-21 22:27N 46°54' W 124°06'0 0.0
2016-Aug-21 21:33N 46°54' W 124°06'0 0.0
2016-Aug-21 20:33N 46°54' W 124°06'0 0.0
2016-Aug-21 19:33N 46°54' W 124°06'0 0.0
2016-Aug-21 18:33N 46°54' W 124°06'0 0.0
2016-Aug-21 17:30N 46°54' W 124°06'0 0.0
2016-Aug-21 16:19N 46°54' W 124°06'0 0.0
2016-Aug-21 15:32N 46°54' W 124°06'0 0.0
2016-Aug-21 14:32N 46°54' W 124°06'0 0.0
2016-Aug-21 11:32N 46°54' W 124°06'0 0.0
2016-Aug-21 10:28N 46°54' W 124°06'0 0.1
2016-Aug-21 09:29N 46°54' W 124°06'7 8.1
2016-Aug-21 08:33N 46°57' W 124°17'9 8.9
2016-Aug-21 07:33N 47°02' W 124°27'19 9.4
2016-Aug-21 05:32N 47°12' W 124°50'4 3.7
2016-Aug-21 04:33N 47°14' W 124°55'3 2.8
2016-Aug-21 03:33N 47°17' W 124°55'3 3.1
2016-Aug-21 02:33N 47°20' W 124°52'3 2.9
2016-Aug-21 01:33N 47°22' W 124°50'5 4.4
2016-Aug-21 00:27N 47°27' W 124°50'9 9.9
2016-Aug-20 23:32N 47°32' W 125°01'10 9.8
2016-Aug-20 22:33N 47°41' W 125°07'8 8.5
2016-Aug-20 21:34N 47°49' W 125°08'5 5.0
2016-Aug-20 20:34N 47°53' W 125°13'4 3.6
2016-Aug-20 19:33N 47°50' W 125°10'2 2.4
2016-Aug-20 18:33N 47°52' W 125°12'  
Track history (hours):
 
Tides and Currents Weather Stations Pressure Air Temp Water Temp Dewpoint Dewpoint Depression Visibility Wind Speed Wind Dir Waves Ship Positions

Arctic Fury

Owner: Fury Group Inc, Seattle, WA. More information available from US FCC via Universal Licensing System and Coast Guard Vessel Documentation Center.

Last reported at 2016-Aug-30 18:21 UTC. Time now 2016-Aug-30 18:54 UTC.
Position N 47°02' W 124°23'.

Length 43 m; draft 5 m.

Type: Fishing. MMSI: 366468000.

Date/timePositionNaut miles runAvg speedWind from/ knotsBaromVisibWave heightAir tempDewpointWater temp
2016-Aug-30 18:21N 47°02' W 124°23'7 9.2
2016-Aug-30 17:33N 46°57' W 124°16'7 6.2
2016-Aug-30 16:28N 46°54' W 124°06'0 0.0
2016-Aug-30 14:25N 46°54' W 124°06'0 0.0
2016-Aug-30 13:31N 46°54' W 124°06'0 0.0
2016-Aug-30 12:33N 46°54' W 124°06'0 0.0
2016-Aug-30 11:29N 46°54' W 124°06'0 0.0
2016-Aug-30 10:26N 46°54' W 124°06'0 0.0
2016-Aug-30 09:33N 46°54' W 124°06'0 0.0
2016-Aug-30 08:33N 46°54' W 124°06'0 0.0
2016-Aug-30 07:34N 46°54' W 124°06'0 0.0
2016-Aug-30 06:33N 46°54' W 124°06'0 0.0
2016-Aug-30 05:33N 46°54' W 124°06'0 0.0
2016-Aug-30 04:33N 46°54' W 124°06'0 0.0
2016-Aug-30 03:32N 46°54' W 124°06'0 0.0
2016-Aug-30 02:32N 46°54' W 124°06'0 0.0
2016-Aug-30 01:27N 46°54' W 124°06'0 0.1
2016-Aug-29 22:20N 46°55' W 124°07'0 0.3
2016-Aug-29 21:31N 46°54' W 124°06'0 0.0
2016-Aug-29 20:32N 46°54' W 124°06'0 0.0
2016-Aug-29 19:33N 46°54' W 124°06'0 0.0
2016-Aug-29 18:33N 46°54' W 124°06'0 0.0
2016-Aug-29 17:09N 46°54' W 124°06'0 0.0
2016-Aug-29 16:17N 46°54' W 124°06'0 0.0
2016-Aug-29 15:04N 46°54' W 124°06'2 3.2
2016-Aug-29 14:32N 46°55' W 124°09'5 5.3
2016-Aug-29 13:32N 46°58' W 124°15'7 6.8
2016-Aug-29 12:32N 47°03' W 124°22'7 6.9
2016-Aug-29 11:32N 47°08' W 124°29'7 6.9
2016-Aug-29 10:31N 47°13' W 124°36'7 6.7
2016-Aug-29 09:33N 47°18' W 124°42'8 6.7
2016-Aug-29 08:25N 47°24' W 124°50'7 6.3
2016-Aug-29 07:23N 47°29' W 124°56'14 4.9
2016-Aug-29 04:31N 47°41' W 125°06'2 1.6
2016-Aug-29 03:31N 47°42' W 125°08'3 2.9
2016-Aug-29 02:33N 47°44' W 125°09'3 3.3
2016-Aug-29 01:33N 47°48' W 125°08'5 2.1
2016-Aug-28 23:17N 47°52' W 125°11'6 6.4
2016-Aug-28 22:23N 47°47' W 125°07'5 2.7
2016-Aug-28 20:31N 47°42' W 125°06'31 4.4
2016-Aug-28 13:33N 47°16' W 124°42'9 9.2
2016-Aug-28 12:33N 47°09' W 124°33'9 9.3
2016-Aug-28 11:33N 47°02' W 124°24'9 9.4
2016-Aug-28 10:33N 46°55' W 124°14'5 4.2
2016-Aug-28 09:17N 46°54' W 124°06'0 0.0
2016-Aug-28 08:32N 46°54' W 124°06'0 0.0
2016-Aug-28 07:25N 46°54' W 124°06'0 0.0
2016-Aug-28 06:18N 46°54' W 124°06'0 0.0
2016-Aug-28 05:27N 46°54' W 124°06'0 0.0
2016-Aug-28 04:33N 46°54' W 124°06'0 0.0
2016-Aug-28 03:33N 46°54' W 124°06'0 0.0
2016-Aug-28 02:32N 46°54' W 124°06'0 0.0
2016-Aug-28 01:33N 46°54' W 124°06'0 0.0
2016-Aug-28 00:29N 46°54' W 124°06'0 0.0
2016-Aug-27 23:09N 46°54' W 124°06'0 0.0
2016-Aug-27 22:33N 46°54' W 124°06'0 0.0
2016-Aug-27 21:32N 46°54' W 124°06'0 0.0
2016-Aug-27 20:29N 46°54' W 124°06'0 0.0
2016-Aug-27 19:21N 46°54' W 124°06'0 0.0
2016-Aug-27 18:30N 46°54' W 124°06'0 0.0
2016-Aug-27 17:28N 46°54' W 124°06'0 0.0
2016-Aug-27 16:30N 46°54' W 124°06'0 0.0
2016-Aug-27 15:32N 46°54' W 124°06'3 0.4
2016-Aug-27 07:33N 46°55' W 124°11'8 8.3
2016-Aug-27 06:33N 47°02' W 124°19'20 9.8
2016-Aug-27 04:32N 47°18' W 124°36'9 9.7
2016-Aug-27 03:33N 47°26' W 124°44'10 9.9
2016-Aug-27 02:33N 47°34' W 124°52'10 9.7
2016-Aug-27 01:33N 47°42' W 125°00'8 8.5
2016-Aug-27 00:33N 47°49' W 125°08'3 3.4
2016-Aug-26 23:33N 47°51' W 125°11'3 2.9
2016-Aug-26 22:33N 47°53' W 125°14'3 3.2
2016-Aug-26 21:33N 47°56' W 125°16'3 3.3
2016-Aug-26 20:33N 47°59' W 125°19'2 0.4
2016-Aug-26 16:32N 47°57' W 125°18'1 0.5
2016-Aug-26 15:32N 47°58' W 125°18'8 8.5
2016-Aug-26 14:33N 47°51' W 125°10'7 7.2
2016-Aug-26 13:33N 47°45' W 125°06'0 0.5
2016-Aug-26 12:33N 47°44' W 125°06'0 0.3
2016-Aug-26 11:33N 47°45' W 125°06'2 1.6
2016-Aug-26 10:33N 47°43' W 125°06'3 3.4
2016-Aug-26 09:33N 47°40' W 125°05'4 3.8
2016-Aug-26 08:33N 47°36' W 125°03'4 3.8
2016-Aug-26 07:33N 47°32' W 125°02'4 3.8
2016-Aug-26 06:33N 47°29' W 124°60'7 3.7
2016-Aug-26 04:33N 47°22' W 124°57'4 3.7
2016-Aug-26 03:33N 47°18' W 124°56'7 6.7
2016-Aug-26 02:33N 47°11' W 124°57'6 6.3
2016-Aug-26 01:33N 47°05' W 124°54'9 8.9
2016-Aug-26 00:33N 47°02' W 124°42'9 9.2
2016-Aug-25 23:33N 46°59' W 124°29'9 9.2
2016-Aug-25 22:33N 46°56' W 124°16'7 6.5
2016-Aug-25 21:31N 46°54' W 124°06'0 0.0
2016-Aug-25 20:33N 46°54' W 124°06'0 0.0
2016-Aug-25 19:22N 46°54' W 124°06'0 0.0
2016-Aug-25 18:32N 46°54' W 124°06'0 0.0
2016-Aug-25 17:31N 46°54' W 124°06'0 0.0
2016-Aug-25 16:29N 46°54' W 124°06'0 0.0
2016-Aug-25 15:33N 46°54' W 124°06'0 0.0
2016-Aug-25 14:33N 46°54' W 124°06'0 0.0
2016-Aug-25 13:33N 46°54' W 124°06'0 0.0
2016-Aug-25 12:32N 46°54' W 124°06'0 0.0
2016-Aug-25 11:07N 46°54' W 124°06'4 6.3
2016-Aug-25 10:33N 46°55' W 124°12'9 9.1
2016-Aug-25 09:33N 47°02' W 124°20'10 9.9
2016-Aug-25 08:33N 47°10' W 124°28'39 9.8
2016-Aug-25 04:33N 47°42' W 125°02'11 9.4
2016-Aug-25 03:23N 47°51' W 125°12'10 1.8
2016-Aug-24 21:33N 47°42' W 125°05'2 2.0
2016-Aug-24 20:25N 47°40' W 125°07'3 3.2
2016-Aug-24 19:33N 47°37' W 125°06'3 3.0
2016-Aug-24 18:33N 47°34' W 125°05'1 1.1
2016-Aug-24 17:33N 47°35' W 125°05'3 3.0
2016-Aug-24 16:33N 47°38' W 125°07'2 0.7
2016-Aug-24 14:13N 47°39' W 125°08'7 7.7
2016-Aug-24 13:22N 47°34' W 125°03'3 4.1
2016-Aug-24 12:33N 47°31' W 125°01'0 0.2
2016-Aug-24 11:33N 47°30' W 125°01'1 0.9
2016-Aug-24 10:32N 47°31' W 125°02'1 0.9
2016-Aug-24 09:33N 47°32' W 125°03'1 0.6
2016-Aug-24 08:33N 47°32' W 125°04'1 0.7
2016-Aug-24 07:33N 47°33' W 125°04'1 0.8
2016-Aug-24 06:31N 47°34' W 125°04'1 0.7
2016-Aug-24 04:31N 47°35' W 125°03'2 2.5
2016-Aug-24 03:33N 47°37' W 125°05'3 3.0
2016-Aug-24 02:33N 47°39' W 125°07'3 3.1
2016-Aug-24 01:33N 47°37' W 125°05'3 3.4
2016-Aug-24 00:33N 47°33' W 125°03'2 2.1
2016-Aug-23 23:33N 47°32' W 125°01'8 8.4
2016-Aug-23 22:33N 47°26' W 124°52'9 9.0
2016-Aug-23 21:34N 47°19' W 124°44'9 9.0
2016-Aug-23 20:33N 47°12' W 124°35'9 9.0
2016-Aug-23 19:33N 47°05' W 124°27'9 9.3
2016-Aug-23 18:33N 46°58' W 124°18'9 8.7
2016-Aug-23 17:33N 46°55' W 124°06'0 0.2
2016-Aug-23 16:33N 46°54' W 124°06'0 0.0
2016-Aug-23 15:29N 46°54' W 124°06'0 0.0
2016-Aug-23 14:33N 46°54' W 124°06'0 0.0
2016-Aug-23 13:33N 46°54' W 124°06'0 0.0
2016-Aug-23 12:33N 46°54' W 124°06'0 0.0
2016-Aug-23 11:33N 46°54' W 124°06'0 0.0
2016-Aug-23 10:33N 46°54' W 124°06'0 0.0
2016-Aug-23 09:33N 46°54' W 124°06'0 0.0
2016-Aug-23 08:15N 46°54' W 124°06'5 7.4
2016-Aug-23 07:33N 46°56' W 124°14'10 9.7
2016-Aug-23 06:33N 47°03' W 124°23'1010.0
2016-Aug-23 05:33N 47°11' W 124°32'11 8.9
2016-Aug-23 04:20N 47°19' W 124°42'7 5.7
2016-Aug-23 03:08N 47°25' W 124°49'2 2.3
2016-Aug-23 02:04N 47°27' W 124°51'21 1.6
2016-Aug-22 13:28N 47°07' W 124°59'1 0.2
2016-Aug-22 10:22N 47°06' W 124°58'2 2.2
2016-Aug-22 09:33N 47°04' W 124°58'3 2.7
2016-Aug-22 08:32N 47°03' W 124°54'3 3.0
2016-Aug-22 07:33N 47°03' W 124°50'3 3.1
2016-Aug-22 06:33N 47°02' W 124°46'3 3.0
2016-Aug-22 05:33N 47°01' W 124°41'3 2.8
2016-Aug-22 04:33N 47°00' W 124°37'3 3.0
2016-Aug-22 03:33N 46°59' W 124°33'3 3.2
2016-Aug-22 02:33N 46°59' W 124°29'3 3.0
2016-Aug-22 01:33N 46°58' W 124°24'3 3.3
2016-Aug-22 00:33N 46°57' W 124°20'6 5.5
2016-Aug-21 23:30N 46°55' W 124°12'4 3.6
2016-Aug-21 22:27N 46°54' W 124°06'0 0.0
2016-Aug-21 21:33N 46°54' W 124°06'0 0.0
2016-Aug-21 20:33N 46°54' W 124°06'0 0.0
2016-Aug-21 19:33N 46°54' W 124°06'0 0.0
2016-Aug-21 18:33N 46°54' W 124°06'0 0.0
2016-Aug-21 17:30N 46°54' W 124°06'0 0.0
2016-Aug-21 16:19N 46°54' W 124°06'0 0.0
2016-Aug-21 15:32N 46°54' W 124°06'0 0.0
2016-Aug-21 14:32N 46°54' W 124°06'0 0.0
2016-Aug-21 11:32N 46°54' W 124°06'0 0.0
2016-Aug-21 10:28N 46°54' W 124°06'0 0.1
2016-Aug-21 09:29N 46°54' W 124°06'7 8.1
2016-Aug-21 08:33N 46°57' W 124°17'9 8.9
2016-Aug-21 07:33N 47°02' W 124°27'19 9.4
2016-Aug-21 05:32N 47°12' W 124°50'4 3.7
2016-Aug-21 04:33N 47°14' W 124°55'3 2.8
2016-Aug-21 03:33N 47°17' W 124°55'3 3.1
2016-Aug-21 02:33N 47°20' W 124°52'3 2.9
2016-Aug-21 01:33N 47°22' W 124°50'5 4.4
2016-Aug-21 00:27N 47°27' W 124°50'9 9.9
2016-Aug-20 23:32N 47°32' W 125°01'10 9.8
2016-Aug-20 22:33N 47°41' W 125°07'8 8.5
2016-Aug-20 21:34N 47°49' W 125°08'5 5.0
2016-Aug-20 20:34N 47°53' W 125°13'4 3.6
2016-Aug-20 19:33N 47°50' W 125°10'2 2.4
2016-Aug-20 18:33N 47°52' W 125°12'  

Dump ship's entire track history